Time;durP1;ratioP1;P1;durP2;ratioP2;P2;SDS_P1;SDS_P2;PMS_P1;PMS_P2;Temp;Humidity;BMP_temperature;BMP_pressure;BME280_temperature;BME280_humidity;BME280_pressure;Samples;Min_cycle;Max_cycle;Signal;HPM_P1;HPM_P2
2024/01/13 00:02:24;;;;;;;;;;;;;;;-5.56;90.87;97715.92;110692;1241;68344;-72
2024/01/13 00:04:54;;;;;;;;;;;;;;;-5.54;90.07;97716.42;110532;1240;69892;-71
2024/01/13 00:07:24;;;;;;;;;;;;;;;-5.52;90.18;97721.50;110708;1239;60559;-72
2024/01/13 00:09:55;;;;;;;;;;;;;;;-5.50;89.87;97719.29;110861;1242;60468;-72
2024/01/13 00:12:25;;;;;;;;;;;;;;;-5.49;88.53;97718.77;110942;1238;71765;-71
2024/01/13 00:14:56;;;;;;;;;;;;;;;-5.50;87.85;97722.86;110913;1239;67748;-72
2024/01/13 00:17:26;;;;;;;;;;;;;;;-5.48;86.66;97720.11;110849;1239;69282;-71
2024/01/13 00:19:56;;;;;;;;;;;;;;;-5.46;86.04;97723.68;110743;1238;60495;-73
2024/01/13 00:22:26;;;;;;;;;;;;;;;-5.43;85.41;97723.83;110573;1240;60475;-72
2024/01/13 00:24:57;;;;;;;;;;;;;;;-5.41;84.98;97717.55;110666;1238;72544;-72
2024/01/13 00:27:26;;;;;;;;;;;;;;;-5.39;85.31;97717.53;110610;1241;69772;-72
2024/01/13 00:29:57;;;;;;;;;;;;;;;-5.39;84.87;97721.45;110458;1239;69203;-72
2024/01/13 00:32:27;;;;;;;;;;;;;;;-5.41;84.95;97725.52;110569;1238;60510;-72
2024/01/13 00:34:57;;;;;;;;;;;;;;;-5.41;84.61;97724.67;110582;1240;60482;-72
2024/01/13 00:37:27;;;;;;;;;;;;;;;-5.38;84.44;97721.09;110569;1239;72802;-72
2024/01/13 00:39:57;;;;;;;;;;;;;;;-5.37;84.86;97721.42;110467;1241;69699;-72
2024/01/13 00:42:28;;;;;;;;;;;;;;;-5.36;84.40;97723.13;110439;1239;68726;-72
2024/01/13 00:44:59;;;;;;;;;;;;;;;-5.37;84.50;97721.44;110467;1239;60554;-72
2024/01/13 00:47:29;;;;;;;;;;;;;;;-5.38;84.14;97723.30;110478;1241;60528;-72
2024/01/13 00:50:02;;;;;;;;;;;;;;;-5.34;83.83;97720.07;110464;1238;72236;-71
2024/01/13 00:52:40;;;;;;;;;;;;;;;-5.29;84.60;97713.75;110446;1238;68402;-72
2024/01/13 00:55:13;;;;;;;;;;;;;;;-5.29;84.68;97708.14;110504;1240;69288;-72
2024/01/13 00:57:44;;;;;;;;;;;;;;;-5.30;84.49;97703.90;110478;1239;60540;-72
2024/01/13 01:00:17;;;;;;;;;;;;;;;-5.32;84.27;97698.30;110457;1238;60485;-72
2024/01/13 01:02:49;;;;;;;;;;;;;;;-5.31;84.31;97696.60;110415;1238;71901;-72
2024/01/13 01:05:20;;;;;;;;;;;;;;;-5.30;84.35;97698.30;110422;1239;68522;-72
2024/01/13 01:07:54;;;;;;;;;;;;;;;-5.28;83.73;97698.45;110480;1241;68451;-72
2024/01/13 01:10:29;;;;;;;;;;;;;;;-5.29;83.93;97694.21;110507;1239;60524;-72
2024/01/13 01:13:04;;;;;;;;;;;;;;;-5.30;83.80;97693.71;110464;1239;60479;-72
2024/01/13 01:15:40;;;;;;;;;;;;;;;-5.29;84.07;97689.28;110452;1239;72029;-73
2024/01/13 01:18:14;;;;;;;;;;;;;;;-5.29;83.88;97689.10;110478;1243;69252;-72
2024/01/13 01:20:59;;;;;;;;;;;;;;;-5.29;83.94;97683.67;110570;1238;69271;-72
2024/01/13 01:23:31;;;;;;;;;;;;;;;-5.27;83.67;97683.66;110449;1241;60430;-73
2024/01/13 01:26:07;;;;;;;;;;;;;;;-5.30;82.85;97685.71;110469;1238;60409;-72
2024/01/13 01:28:41;;;;;;;;;;;;;;;-5.26;82.91;97685.70;110549;1238;71549;-72
2024/01/13 01:31:12;;;;;;;;;;;;;;;-5.24;82.76;97686.20;110464;1240;69100;-72
2024/01/13 01:33:44;;;;;;;;;;;;;;;-5.25;82.37;97678.73;110474;1241;69123;-72
2024/01/13 01:36:20;;;;;;;;;;;;;;;-5.20;82.25;97678.86;110565;1239;60543;-72
2024/01/13 01:38:51;;;;;;;;;;;;;;;-5.20;82.22;97681.92;110519;1238;60522;-71
2024/01/13 01:41:30;;;;;;;;;;;;;;;-5.19;82.42;97676.98;110436;1241;72097;-71
2024/01/13 01:44:02;;;;;;;;;;;;;;;-5.17;83.63;97674.77;110562;1239;68507;-72
2024/01/13 01:46:33;;;;;;;;;;;;;;;-5.16;83.88;97673.23;110402;1238;68638;-72
2024/01/13 01:49:04;;;;;;;;;;;;;;;-5.15;83.46;97671.17;110440;1239;60513;-71
2024/01/13 01:51:35;;;;;;;;;;;;;;;-5.18;84.63;97667.80;110502;1238;60576;-71
2024/01/13 01:54:08;;;;;;;;;;;;;;;-5.20;83.97;97670.20;110433;1240;71421;-72
2024/01/13 01:56:39;;;;;;;;;;;;;;;-5.18;84.42;97665.25;110572;1242;69695;-71
2024/01/13 01:59:13;;;;;;;;;;;;;;;-5.16;84.73;97663.89;110441;1241;69236;-71
2024/01/13 02:01:44;;;;;;;;;;;;;;;-5.17;84.98;97661.84;110577;1239;60502;-72
2024/01/13 02:04:18;;;;;;;;;;;;;;;-5.19;85.46;97659.81;110451;1238;60950;-72
2024/01/13 02:06:49;;;;;;;;;;;;;;;-5.14;85.50;97652.98;110552;1241;71276;-72
2024/01/13 02:09:19;;;;;;;;;;;;;;;-5.14;85.53;97644.48;110537;1238;69035;-72
2024/01/13 02:12:02;;;;;;;;;;;;;;;-5.12;86.44;97640.06;110619;1240;69679;-72
2024/01/13 02:14:33;;;;;;;;;;;;;;;-5.12;86.26;97640.23;110486;1239;60544;-73
2024/01/13 02:17:05;;;;;;;;;;;;;;;-5.17;86.61;97642.82;110443;1238;60544;-72
2024/01/13 02:19:36;;;;;;;;;;;;;;;-5.18;86.53;97639.92;110500;1240;72053;-72
2024/01/13 02:22:10;;;;;;;;;;;;;;;-5.18;86.56;97638.74;110444;1245;69049;-72
2024/01/13 02:24:42;;;;;;;;;;;;;;;-5.17;86.62;97635.16;110507;1239;68495;-72
2024/01/13 02:27:13;;;;;;;;;;;;;;;-5.18;86.47;97630.08;110513;1238;60498;-71
2024/01/13 02:29:44;;;;;;;;;;;;;;;-5.16;86.27;97629.56;110468;1238;60470;-72
2024/01/13 02:32:14;;;;;;;;;;;;;;;-5.13;85.82;97626.48;110429;1240;72709;-73
2024/01/13 02:34:45;;;;;;;;;;;;;;;-5.16;85.74;97623.94;110489;1240;68309;-72
2024/01/13 02:37:18;;;;;;;;;;;;;;;-5.15;85.92;97617.82;110492;1238;68931;-72
2024/01/13 02:39:50;;;;;;;;;;;;;;;-5.15;85.55;97617.82;110414;1238;60893;-73
2024/01/13 02:42:20;;;;;;;;;;;;;;;-5.15;85.37;97612.05;110440;1237;60504;-73
2024/01/13 02:44:51;;;;;;;;;;;;;;;-5.10;85.25;97612.86;110491;1238;72007;-72
2024/01/13 02:47:27;;;;;;;;;;;;;;;-5.10;85.69;97606.91;110527;1240;68313;-72
2024/01/13 02:49:58;;;;;;;;;;;;;;;-5.13;85.79;97600.99;110423;1238;69425;-72
2024/01/13 02:52:33;;;;;;;;;;;;;;;-5.15;85.97;97591.98;110448;1238;60507;-73
2024/01/13 02:55:04;;;;;;;;;;;;;;;-5.17;85.75;97593.86;110497;1239;60461;-72
2024/01/13 02:57:39;;;;;;;;;;;;;;;-5.17;86.03;97590.81;110528;1237;72053;-72
2024/01/13 03:00:13;;;;;;;;;;;;;;;-5.15;86.51;97588.25;110429;1240;68345;-72
2024/01/13 03:02:46;;;;;;;;;;;;;;;-5.16;86.81;97581.46;110406;1239;69071;-73
2024/01/13 03:05:18;;;;;;;;;;;;;;;-5.18;87.51;97575.18;110456;1241;60559;-73
2024/01/13 03:07:49;;;;;;;;;;;;;;;-5.18;87.47;97570.77;110530;1239;60441;-73
2024/01/13 03:10:20;;;;;;;;;;;;;;;-5.18;86.98;97569.41;110455;1239;71460;-72
2024/01/13 03:12:54;;;;;;;;;;;;;;;-5.18;87.16;97568.06;110438;1238;68318;-72
2024/01/13 03:15:25;;;;;;;;;;;;;;;-5.16;87.36;97569.05;110456;1238;68390;-73
2024/01/13 03:17:58;;;;;;;;;;;;;;;-5.16;86.93;97566.33;110340;1242;60499;-72
2024/01/13 03:20:40;;;;;;;;;;;;;;;-5.15;86.44;97565.65;110409;1238;60502;-73
2024/01/13 03:23:11;;;;;;;;;;;;;;;-5.14;86.38;97564.45;110456;1241;72413;-73
2024/01/13 03:25:44;;;;;;;;;;;;;;;-5.15;86.35;97568.36;110471;1239;69087;-73
2024/01/13 03:28:22;;;;;;;;;;;;;;;-5.12;85.86;97564.61;110477;1241;68519;-73
2024/01/13 03:31:09;;;;;;;;;;;;;;;-5.16;86.56;97561.07;110497;1238;60467;-72
2024/01/13 03:33:45;;;;;;;;;;;;;;;-5.17;87.16;97559.89;110478;1239;60901;-72
2024/01/13 03:36:18;;;;;;;;;;;;;;;-5.14;86.95;97552.21;110421;1241;72102;-72
2024/01/13 03:38:52;;;;;;;;;;;;;;;-5.14;87.19;97547.79;110488;1241;69070;-72
2024/01/13 03:41:24;;;;;;;;;;;;;;;-5.16;87.92;97538.81;110440;1238;69279;-73
2024/01/13 03:44:00;;;;;;;;;;;;;;;-5.16;88.51;97535.23;110436;1238;60508;-72
2024/01/13 03:46:32;;;;;;;;;;;;;;;-5.17;88.81;97539.33;110425;1239;60472;-73
2024/01/13 03:49:04;;;;;;;;;;;;;;;-5.20;89.66;97535.95;110501;1239;72255;-72
2024/01/13 03:51:37;;;;;;;;;;;;;;;-5.16;88.86;97536.44;110538;1239;68478;-72
2024/01/13 03:54:12;;;;;;;;;;;;;;;-5.16;87.82;97538.64;110472;1238;69297;-72
2024/01/13 03:56:45;;;;;;;;;;;;;;;-5.16;87.51;97537.45;110410;1240;60601;-72
2024/01/13 03:59:20;;;;;;;;;;;;;;;-5.17;88.41;97532.70;110493;1238;60577;-72
2024/01/13 04:01:52;;;;;;;;;;;;;;;-5.16;87.90;97531.67;110450;1241;72154;-73
2024/01/13 04:04:22;;;;;;;;;;;;;;;-5.18;88.17;97533.21;110461;1241;69244;-72
2024/01/13 04:06:54;;;;;;;;;;;;;;;-5.18;88.32;97534.56;110464;1240;69659;-72
2024/01/13 04:09:25;;;;;;;;;;;;;;;-5.16;89.04;97535.75;110434;1241;60528;-73
2024/01/13 04:12:02;;;;;;;;;;;;;;;-5.14;89.28;97535.39;110571;1238;60487;-73
2024/01/13 04:14:34;;;;;;;;;;;;;;;-5.13;88.99;97531.80;110494;1243;71343;-73
2024/01/13 04:17:06;;;;;;;;;;;;;;;-5.12;88.71;97523.98;110463;1241;69220;-73
2024/01/13 04:19:39;;;;;;;;;;;;;;;-5.12;89.71;97522.13;110519;1240;69240;-72
2024/01/13 04:22:11;;;;;;;;;;;;;;;-5.10;90.05;97522.11;110402;1239;60540;-72
2024/01/13 04:24:41;;;;;;;;;;;;;;;-5.10;89.92;97517.16;110430;1238;60495;-72
2024/01/13 04:27:14;;;;;;;;;;;;;;;-5.09;89.77;97522.94;110442;1240;71485;-72
2024/01/13 04:29:45;;;;;;;;;;;;;;;-5.09;89.68;97518.69;110426;1239;68458;-72
2024/01/13 04:32:20;;;;;;;;;;;;;;;-5.09;91.02;97519.71;110401;1238;68499;-72
2024/01/13 04:34:51;;;;;;;;;;;;;;;-5.10;91.93;97518.36;110393;1238;60543;-73
2024/01/13 04:37:20;;;;;;;;;;;;;;;-5.10;92.39;97518.88;110389;1242;60545;-72
2024/01/13 04:39:50;;;;;;;;;;;;;;;-5.12;94.02;97510.91;110463;1238;72103;-72
2024/01/13 04:42:21;;;;;;;;;;;;;;;-5.13;94.11;97513.63;110433;1239;67657;-73
2024/01/13 04:44:51;;;;;;;;;;;;;;;-5.15;93.86;97514.66;110430;1239;69319;-73
2024/01/13 04:47:25;;;;;;;;;;;;;;;-5.14;94.95;97518.55;110469;1239;60543;-72
2024/01/13 04:49:56;;;;;;;;;;;;;;;-5.17;97.53;97515.36;110475;1241;60514;-73
2024/01/13 04:52:27;;;;;;;;;;;;;;;-5.19;98.42;97514.53;110481;1242;72202;-72
2024/01/13 04:54:58;;;;;;;;;;;;;;;-5.25;99.33;97507.11;110361;1238;69089;-72
2024/01/13 04:57:29;;;;;;;;;;;;;;;-5.24;98.90;97497.92;110457;1239;69183;-72
2024/01/13 05:00:00;;;;;;;;;;;;;;;-5.24;99.55;97487.58;110497;1238;60497;-72
2024/01/13 05:02:29;;;;;;;;;;;;;;;-5.25;99.98;97485.71;110437;1240;60916;-72
2024/01/13 05:05:08;;;;;;;;;;;;;;;-5.26;100.00;97480.27;110425;1239;72228;-72
2024/01/13 05:07:39;;;;;;;;;;;;;;;-5.28;100.00;97477.07;110424;1239;69176;-72
2024/01/13 05:10:08;;;;;;;;;;;;;;;-5.28;100.00;97475.02;110426;1241;69311;-72
2024/01/13 05:12:38;;;;;;;;;;;;;;;-5.30;100.00;97477.08;110545;1238;60493;-72
2024/01/13 05:15:08;;;;;;;;;;;;;;;-5.24;100.00;97474.83;110516;1238;60553;-72
2024/01/13 05:17:39;;;;;;;;;;;;;;;-5.32;100.00;97472.18;110380;1238;72543;-72
2024/01/13 05:20:10;;;;;;;;;;;;;;;-5.32;100.00;97477.62;110530;1241;69048;-72
2024/01/13 05:22:40;;;;;;;;;;;;;;;-5.36;100.00;97476.98;110430;1239;69105;-72
2024/01/13 05:25:17;;;;;;;;;;;;;;;-5.36;100.00;97472.38;110425;1238;60535;-72
2024/01/13 05:27:47;;;;;;;;;;;;;;;-5.37;100.00;97471.36;110429;1239;60427;-72
2024/01/13 05:30:16;;;;;;;;;;;;;;;-5.38;100.00;97470.02;110471;1238;72211;-72
2024/01/13 05:32:46;;;;;;;;;;;;;;;-5.35;100.00;97471.87;110435;1239;69841;-72
2024/01/13 05:35:15;;;;;;;;;;;;;;;-5.32;100.00;97467.42;110499;1241;69319;-72
2024/01/13 05:37:46;;;;;;;;;;;;;;;-5.33;100.00;97467.09;110649;1241;60499;-72
2024/01/13 05:40:17;;;;;;;;;;;;;;;-5.35;100.00;97465.23;110593;1237;60528;-72
2024/01/13 05:42:48;;;;;;;;;;;;;;;-5.36;100.00;97463.89;110476;1240;72100;-72
2024/01/13 05:45:19;;;;;;;;;;;;;;;-5.33;100.00;97463.86;110433;1238;69320;-73
2024/01/13 05:47:49;;;;;;;;;;;;;;;-5.37;100.00;97469.33;110471;1239;69858;-72
2024/01/13 05:50:19;;;;;;;;;;;;;;;-5.37;100.00;97469.00;110444;1238;60533;-72
2024/01/13 05:52:48;;;;;;;;;;;;;;;-5.39;100.00;97468.16;110450;1242;60947;-73
2024/01/13 05:55:17;;;;;;;;;;;;;;;-5.36;100.00;97470.01;110533;1239;72187;-73
2024/01/13 05:57:48;;;;;;;;;;;;;;;-5.36;100.00;97467.63;110521;1239;69291;-72
2024/01/13 06:00:18;;;;;;;;;;;;;;;-5.34;100.00;97470.51;110509;1240;69300;-73
2024/01/13 06:02:47;;;;;;;;;;;;;;;-5.34;100.00;97470.85;110499;1242;60551;-72
2024/01/13 06:05:17;;;;;;;;;;;;;;;-5.34;100.00;97468.11;110545;1239;60524;-72
2024/01/13 06:07:48;;;;;;;;;;;;;;;-5.32;100.00;97471.83;110430;1241;71408;-72
2024/01/13 06:10:17;;;;;;;;;;;;;;;-5.06;100.00;97480.42;110455;1242;68605;-73
2024/01/13 06:12:46;;;;;;;;;;;;;;;-5.20;100.00;97480.05;110534;1242;69228;-73
2024/01/13 06:15:16;;;;;;;;;;;;;;;-5.25;100.00;97476.70;110499;1241;60534;-72
2024/01/13 06:17:46;;;;;;;;;;;;;;;-5.20;100.00;97481.25;110486;1240;60479;-71
2024/01/13 06:20:15;;;;;;;;;;;;;;;-4.97;100.00;97482.88;110537;1242;73145;-71
2024/01/13 06:22:45;;;;;;;;;;;;;;;-4.90;100.00;97481.62;110527;1239;69238;-71
2024/01/13 06:25:15;;;;;;;;;;;;;;;-5.03;100.00;97487.20;110454;1241;69533;-71
2024/01/13 06:27:45;;;;;;;;;;;;;;;-5.11;100.00;97485.05;110502;1240;60464;-72
2024/01/13 06:30:14;;;;;;;;;;;;;;;-5.11;100.00;97487.45;110438;1238;60540;-71
2024/01/13 06:32:44;;;;;;;;;;;;;;;-5.09;100.00;97484.54;110515;1238;71473;-72
2024/01/13 06:35:13;;;;;;;;;;;;;;;-5.07;100.00;97487.08;110485;1238;69995;-71
2024/01/13 06:37:42;;;;;;;;;;;;;;;-5.04;100.00;97484.14;110597;1242;69288;-72
2024/01/13 06:40:12;;;;;;;;;;;;;;;-5.02;100.00;97485.49;110539;1241;60498;-72
2024/01/13 06:42:41;;;;;;;;;;;;;;;-5.00;100.00;97483.42;110538;1238;60540;-72
2024/01/13 06:45:10;;;;;;;;;;;;;;;-4.96;100.00;97481.34;110555;1241;72810;-72
2024/01/13 06:47:39;;;;;;;;;;;;;;;-4.92;100.00;97480.97;110554;1238;68497;-72
2024/01/13 06:50:09;;;;;;;;;;;;;;;-4.88;100.00;97485.49;110357;1248;69960;-72
2024/01/13 06:52:38;;;;;;;;;;;;;;;-4.82;100.00;97485.44;110399;1240;60399;-72
2024/01/13 06:55:08;;;;;;;;;;;;;;;-4.79;100.00;97491.20;110418;1239;60475;-72
2024/01/13 06:57:37;;;;;;;;;;;;;;;-4.77;100.00;97489.30;110403;1238;72148;-72
2024/01/13 07:00:07;;;;;;;;;;;;;;;-4.76;100.00;97489.98;110429;1239;68799;-72
2024/01/13 07:02:36;;;;;;;;;;;;;;;-4.74;100.00;97490.80;110429;1239;69849;-72
2024/01/13 07:05:07;;;;;;;;;;;;;;;-4.70;100.00;97489.06;110455;1240;60421;-72
2024/01/13 07:07:36;;;;;;;;;;;;;;;-4.67;100.00;97486.14;110408;1238;60561;-72
2024/01/13 07:10:05;;;;;;;;;;;;;;;-4.64;100.00;97483.36;110441;1239;72519;-72
2024/01/13 07:12:34;;;;;;;;;;;;;;;-4.60;100.00;97487.59;110414;1241;69825;-72
2024/01/13 07:15:04;;;;;;;;;;;;;;;-4.56;100.00;97489.26;110410;1240;67365;-72
2024/01/13 07:17:34;;;;;;;;;;;;;;;-4.55;100.00;97488.38;110423;1241;60430;-72
2024/01/13 07:20:03;;;;;;;;;;;;;;;-4.53;100.00;97486.48;110395;1240;60555;-72
2024/01/13 07:22:33;;;;;;;;;;;;;;;-4.51;100.00;97490.05;110400;1243;72784;-72
2024/01/13 07:25:03;;;;;;;;;;;;;;;-4.51;100.00;97490.72;110400;1243;69170;-72
2024/01/13 07:27:32;;;;;;;;;;;;;;;-4.50;100.00;97488.15;110411;1243;69318;-72
2024/01/13 07:30:02;;;;;;;;;;;;;;;-4.49;100.00;97481.84;110433;1238;60969;-73
2024/01/13 07:32:31;;;;;;;;;;;;;;;-4.51;100.00;97479.83;110457;1241;60427;-72
2024/01/13 07:35:00;;;;;;;;;;;;;;;-4.51;100.00;97481.20;110417;1238;72300;-72
2024/01/13 07:37:30;;;;;;;;;;;;;;;-4.50;100.00;97482.36;110409;1239;69705;-72
2024/01/13 07:40:00;;;;;;;;;;;;;;;-4.45;100.00;97486.73;110366;1241;68515;-72
2024/01/13 07:42:29;;;;;;;;;;;;;;;-4.38;100.00;97484.27;110446;1239;60425;-72
2024/01/13 07:44:58;;;;;;;;;;;;;;;-4.35;100.00;97486.08;110525;1238;60475;-73
2024/01/13 07:47:27;;;;;;;;;;;;;;;-4.36;100.00;97486.95;110457;1242;73114;-73
2024/01/13 07:49:56;;;;;;;;;;;;;;;-4.38;100.00;97485.95;110636;1243;68832;-72
2024/01/13 07:52:25;;;;;;;;;;;;;;;-4.35;100.00;97486.25;110494;1239;68344;-72
2024/01/13 07:54:54;;;;;;;;;;;;;;;-4.31;100.00;97487.91;110442;1240;60560;-73
2024/01/13 07:57:26;;;;;;;;;;;;;;;-4.27;100.00;97487.86;110518;1240;60433;-73
2024/01/13 07:59:56;;;;;;;;;;;;;;;-4.26;100.00;97481.89;110424;1242;72816;-73
2024/01/13 08:02:24;;;;;;;;;;;;;;;-4.22;100.00;97485.92;110418;1242;69920;-70
2024/01/13 08:04:54;;;;;;;;;;;;;;;-4.17;100.00;97490.45;110507;1239;69454;-73
2024/01/13 08:07:25;;;;;;;;;;;;;;;-4.15;100.00;97489.76;110472;1239;60555;-74
2024/01/13 08:09:54;;;;;;;;;;;;;;;-4.11;100.00;97489.87;110485;1239;60861;-72
2024/01/13 08:12:23;;;;;;;;;;;;;;;-4.13;100.00;97495.50;110402;1241;71721;-71
2024/01/13 08:14:52;;;;;;;;;;;;;;;-4.12;100.00;97495.31;110443;1238;68426;-71
2024/01/13 08:17:22;;;;;;;;;;;;;;;-4.15;100.00;97503.19;110409;1239;69261;-71
2024/01/13 08:19:51;;;;;;;;;;;;;;;-4.20;100.00;97506.16;110441;1238;60540;-71
2024/01/13 08:22:20;;;;;;;;;;;;;;;-4.20;100.00;97506.15;110387;1241;60395;-73
2024/01/13 08:24:49;;;;;;;;;;;;;;;-4.17;100.00;97513.42;110424;1238;72258;-75
2024/01/13 08:27:18;;;;;;;;;;;;;;;-4.13;100.00;97512.36;110445;1238;69882;-75
2024/01/13 08:29:47;;;;;;;;;;;;;;;-4.04;100.00;97513.09;110419;1238;68585;-75
2024/01/13 08:32:17;;;;;;;;;;;;;;;-4.03;100.00;97512.23;110338;1242;60631;-75
2024/01/13 08:34:46;;;;;;;;;;;;;;;-3.98;100.00;97516.94;110398;1239;60546;-76
2024/01/13 08:37:16;;;;;;;;;;;;;;;-3.91;100.00;97520.92;110390;1238;72110;-75
2024/01/13 08:39:45;;;;;;;;;;;;;;;-3.86;100.00;97519.49;110470;1243;69828;-75
2024/01/13 08:42:14;;;;;;;;;;;;;;;-3.87;100.00;97519.17;110399;1242;69857;-76
2024/01/13 08:44:43;;;;;;;;;;;;;;;-3.82;100.00;97520.98;110500;1240;60537;-75
2024/01/13 08:47:12;;;;;;;;;;;;;;;-3.76;100.00;97526.50;110462;1241;60544;-76
2024/01/13 08:49:42;;;;;;;;;;;;;;;-3.72;100.00;97532.24;110574;1239;71679;-75
2024/01/13 08:52:11;;;;;;;;;;;;;;;-3.65;100.00;97537.92;110590;1240;69115;-75
2024/01/13 08:54:40;;;;;;;;;;;;;;;-3.63;100.00;97533.12;110460;1239;69285;-75
2024/01/13 08:57:09;;;;;;;;;;;;;;;-3.57;100.00;97529.30;110443;1242;60500;-75
2024/01/13 08:59:39;;;;;;;;;;;;;;;-3.50;100.00;97522.89;110437;1238;60425;-76
2024/01/13 09:02:08;;;;;;;;;;;;;;;-3.42;100.00;97521.55;110430;1239;72178;-76
2024/01/13 09:04:37;;;;;;;;;;;;;;;-3.36;100.00;97518.06;110435;1241;69209;-74
2024/01/13 09:07:06;;;;;;;;;;;;;;;-3.27;100.00;97511.28;110425;1242;69644;-78
2024/01/13 09:09:35;;;;;;;;;;;;;;;-3.20;100.00;97510.98;110398;1240;60444;-77
2024/01/13 09:12:04;;;;;;;;;;;;;;;-3.11;100.00;97506.07;110553;1240;60485;-77
2024/01/13 09:14:33;;;;;;;;;;;;;;;-3.00;99.99;97505.36;110596;1238;72757;-75
2024/01/13 09:17:03;;;;;;;;;;;;;;;-2.99;99.37;97502.45;110494;1241;69107;-75
2024/01/13 09:19:32;;;;;;;;;;;;;;;-3.00;98.70;97496.33;110425;1242;68553;-75
2024/01/13 09:22:02;;;;;;;;;;;;;;;-2.97;98.00;97491.17;110417;1240;60495;-74
2024/01/13 09:24:32;;;;;;;;;;;;;;;-3.00;97.93;97489.17;110475;1240;60581;-75
2024/01/13 09:27:01;;;;;;;;;;;;;;;-3.00;98.06;97487.30;110472;1242;72212;-76
2024/01/13 09:29:30;;;;;;;;;;;;;;;-2.96;98.14;97483.13;110484;1239;69210;-76
2024/01/13 09:31:59;;;;;;;;;;;;;;;-2.95;97.67;97483.77;110506;1242;69427;-76
2024/01/13 09:34:29;;;;;;;;;;;;;;;-2.95;97.92;97483.45;110531;1241;60467;-72
2024/01/13 09:36:58;;;;;;;;;;;;;;;-2.91;98.81;97474.52;110707;1238;60493;-66
2024/01/13 09:39:27;;;;;;;;;;;;;;;-2.77;98.34;97471.85;110961;1242;70767;-69
2024/01/13 09:41:59;;;;;;;;;;;;;;;-2.78;96.27;97470.17;111198;1239;69223;-70
2024/01/13 09:44:29;;;;;;;;;;;;;;;-2.76;96.73;97466.03;111172;1242;69869;-69
2024/01/13 09:47:00;;;;;;;;;;;;;;;-2.87;96.47;97469.14;111099;1239;60467;-69
2024/01/13 09:49:30;;;;;;;;;;;;;;;-2.90;96.97;97465.96;110969;1244;60553;-70
2024/01/13 09:52:05;;;;;;;;;;;;;;;-2.89;96.06;97462.35;110563;1238;72916;-69
2024/01/13 09:54:35;;;;;;;;;;;;;;;-2.86;95.86;97464.87;110551;1239;69096;-69
2024/01/13 09:57:05;;;;;;;;;;;;;;;-2.95;97.15;97463.84;110499;1242;69954;-70
2024/01/13 09:59:36;;;;;;;;;;;;;;;-2.91;96.96;97466.66;110586;1242;60527;-69
2024/01/13 10:02:08;;;;;;;;;;;;;;;-2.88;96.80;97466.42;110499;1239;60402;-68
2024/01/13 10:04:40;;;;;;;;;;;;;;;-2.81;96.72;97464.60;110446;1238;72018;-69
2024/01/13 10:07:09;;;;;;;;;;;;;;;-2.72;96.01;97463.59;110456;1238;68569;-69
2024/01/13 10:09:39;;;;;;;;;;;;;;;-2.83;96.22;97462.60;110514;1239;68315;-69
2024/01/13 10:12:09;;;;;;;;;;;;;;;-2.84;96.88;97462.77;110454;1240;60533;-72
2024/01/13 10:14:43;;;;;;;;;;;;;;;-2.75;96.15;97467.90;110443;1242;60492;-72
2024/01/13 10:17:14;;;;;;;;;;;;;;;-2.82;96.47;97464.45;110423;1238;71969;-69
2024/01/13 10:19:44;;;;;;;;;;;;;;;-2.87;96.77;97460.79;110557;1241;69768;-69
2024/01/13 10:22:15;;;;;;;;;;;;;;;-2.76;96.81;97460.74;110418;1239;69995;-69
2024/01/13 10:24:48;;;;;;;;;;;;;;;-2.66;96.32;97468.24;110525;1241;60481;-69
2024/01/13 10:27:17;;;;;;;;;;;;;;;-2.66;95.61;97465.17;110493;1242;60415;-69
2024/01/13 10:29:47;;;;;;;;;;;;;;;-2.65;96.48;97463.27;110568;1241;72788;-69
2024/01/13 10:32:16;;;;;;;;;;;;;;;-2.56;96.29;97465.31;110534;1238;68805;-70
2024/01/13 10:34:46;;;;;;;;;;;;;;;-2.56;95.47;97460.54;110555;1242;69865;-69
2024/01/13 10:37:17;;;;;;;;;;;;;;;-2.52;95.81;97459.61;110478;1239;60566;-69
2024/01/13 10:39:46;;;;;;;;;;;;;;;-2.46;95.56;97454.88;110427;1242;60910;-69
2024/01/13 10:42:18;;;;;;;;;;;;;;;-2.34;94.98;97450.54;110591;1238;72784;-69
2024/01/13 10:44:56;;;;;;;;;;;;;;;-2.28;95.37;97445.30;110421;1240;69853;-69
2024/01/13 10:47:31;;;;;;;;;;;;;;;-2.21;94.27;97446.66;110438;1242;68280;-69
2024/01/13 10:50:01;;;;;;;;;;;;;;;-2.22;94.19;97442.25;110390;1241;60547;-67
2024/01/13 10:52:43;;;;;;;;;;;;;;;-2.26;94.52;97440.46;110305;1242;60523;-67
2024/01/13 10:55:13;;;;;;;;;;;;;;;-2.26;94.70;97443.86;110398;1238;71167;-73
2024/01/13 10:57:43;;;;;;;;;;;;;;;-2.20;94.02;97441.35;110442;1239;69214;-74
2024/01/13 11:00:13;;;;;;;;;;;;;;;-2.11;94.33;97436.20;110418;1241;69860;-73
2024/01/13 11:02:42;;;;;;;;;;;;;;;-2.09;94.65;97441.44;110438;1241;60511;-73
2024/01/13 11:05:14;;;;;;;;;;;;;;;-2.15;94.41;97443.62;109993;1241;594124;-74
2024/01/13 11:07:43;;;;;;;;;;;;;;;-2.20;95.20;97448.86;110386;1240;72742;-74
2024/01/13 11:10:16;;;;;;;;;;;;;;;-2.31;96.17;97448.75;110398;1238;68678;-74
2024/01/13 11:12:49;;;;;;;;;;;;;;;-2.31;97.96;97446.89;110454;1241;69258;-72
2024/01/13 11:15:25;;;;;;;;;;;;;;;-2.07;95.62;97451.16;110424;1242;60445;-72
2024/01/13 11:17:54;;;;;;;;;;;;;;;-2.12;95.44;97452.97;110417;1242;60477;-72
2024/01/13 11:20:26;;;;;;;;;;;;;;;-2.28;95.92;97452.45;110425;1238;72593;-72
2024/01/13 11:22:58;;;;;;;;;;;;;;;-2.24;96.15;97456.98;110444;1241;69806;-71
2024/01/13 11:25:28;;;;;;;;;;;;;;;-2.25;95.97;97452.73;110485;1242;69664;-72
2024/01/13 11:27:59;;;;;;;;;;;;;;;-2.21;96.74;97445.13;110538;1243;60550;-72
2024/01/13 11:30:30;;;;;;;;;;;;;;;-2.12;96.28;97444.77;110500;1238;60560;-72
2024/01/13 11:32:59;;;;;;;;;;;;;;;-2.14;96.21;97444.61;110480;1242;72560;-72
2024/01/13 11:35:28;;;;;;;;;;;;;;;-2.05;93.93;97441.54;110441;1238;69823;-72
2024/01/13 11:38:00;;;;;;;;;;;;;;;-2.06;92.49;97438.99;110433;1242;69845;-73
2024/01/13 11:40:30;;;;;;;;;;;;;;;-1.94;92.99;97436.01;110501;1239;60505;-73
2024/01/13 11:43:00;;;;;;;;;;;;;;;-2.07;92.87;97435.07;110493;1240;60531;-75
2024/01/13 11:45:49;;;;;;;;;;;;;;;-1.90;92.61;97438.98;110476;1242;72162;-73
2024/01/13 11:48:32;;;;;;;;;;;;;;;-1.75;92.70;97426.85;110484;1241;70186;-74
2024/01/13 11:51:01;;;;;;;;;;;;;;;-1.79;91.55;97423.84;110387;1242;68502;-74
2024/01/13 11:53:36;;;;;;;;;;;;;;;-1.62;91.96;97416.45;110461;1238;60464;-74
2024/01/13 11:56:07;;;;;;;;;;;;;;;-1.54;91.45;97409.76;110438;1239;60534;-74
2024/01/13 11:58:37;;;;;;;;;;;;;;;-1.52;91.05;97406.45;110532;1240;72794;-73
2024/01/13 12:01:07;;;;;;;;;;;;;;;-1.69;91.32;97400.91;110489;1241;70129;-74
2024/01/13 12:03:39;;;;;;;;;;;;;;;-1.63;90.61;97395.96;110542;1238;69239;-73
2024/01/13 12:06:10;;;;;;;;;;;;;;;-1.76;89.87;97397.31;110427;1239;60540;-73
2024/01/13 12:08:41;;;;;;;;;;;;;;;-1.87;89.39;97401.83;110395;1242;60492;-75
2024/01/13 12:11:12;;;;;;;;;;;;;;;-2.11;91.28;97401.86;110415;1238;71198;-74
2024/01/13 12:13:43;;;;;;;;;;;;;;;-2.05;93.03;97396.63;110439;1241;69540;-74
2024/01/13 12:16:13;;;;;;;;;;;;;;;-1.99;92.94;97393.08;110450;1242;69052;-74
2024/01/13 12:18:45;;;;;;;;;;;;;;;-1.89;92.74;97390.61;110372;1242;60491;-74
2024/01/13 12:21:14;;;;;;;;;;;;;;;-1.88;91.24;97389.58;110408;1242;60518;-74
2024/01/13 12:23:44;;;;;;;;;;;;;;;-2.00;92.69;97393.77;110415;1239;72316;-75
2024/01/13 12:26:14;;;;;;;;;;;;;;;-1.98;92.08;97391.69;110455;1242;69820;-75
2024/01/13 12:28:43;;;;;;;;;;;;;;;-1.98;92.67;97389.98;110404;1242;68701;-74
2024/01/13 12:31:12;;;;;;;;;;;;;;;-1.94;92.64;97386.96;110448;1242;60588;-75
2024/01/13 12:33:42;;;;;;;;;;;;;;;-1.91;91.81;97383.32;110476;1240;60500;-74
2024/01/13 12:36:13;;;;;;;;;;;;;;;-1.98;92.35;97382.28;110479;1239;72732;-74
2024/01/13 12:38:42;;;;;;;;;;;;;;;-1.99;91.59;97384.86;110508;1242;69235;-74
2024/01/13 12:41:11;;;;;;;;;;;;;;;-2.11;92.88;97389.91;110466;1241;69229;-75
2024/01/13 12:43:41;;;;;;;;;;;;;;;-2.05;92.37;97385.16;110376;1242;60624;-74
2024/01/13 12:46:11;;;;;;;;;;;;;;;-2.07;93.56;97378.56;110436;1238;60527;-74
2024/01/13 12:48:40;;;;;;;;;;;;;;;-1.99;92.82;97374.11;110399;1239;72527;-75
2024/01/13 12:51:20;;;;;;;;;;;;;;;-1.93;93.01;97360.64;110467;1240;69980;-75
2024/01/13 12:53:49;;;;;;;;;;;;;;;-1.90;91.58;97349.11;110482;1241;69863;-74